Time;durP1;ratioP1;P1;durP2;ratioP2;P2;SDS_P1;SDS_P2;PMS_P1;PMS_P2;Temp;Humidity;BMP_temperature;BMP_pressure;BME280_temperature;BME280_humidity;BME280_pressure;Samples;Min_cycle;Max_cycle;Signal;HPM_P1;HPM_P2
2023/01/04 00:00:11;;;;;;;11.05;6.15;;;6.30;99.90;;;;;;4926691;29;20718;-83
2023/01/04 00:02:36;;;;;;;18.38;6.72;;;6.20;99.90;;;;;;4918854;29;20115;-84
2023/01/04 00:05:02;;;;;;;12.32;5.90;;;6.30;99.90;;;;;;4924544;29;20114;-83
2023/01/04 00:07:29;;;;;;;12.52;6.50;;;6.30;99.90;;;;;;4927662;29;20481;-83
2023/01/04 00:09:54;;;;;;;14.23;6.38;;;6.30;99.90;;;;;;4931369;29;20024;-84
2023/01/04 00:12:20;;;;;;;11.50;6.35;;;6.30;99.90;;;;;;4920452;29;20104;-84
2023/01/04 00:14:45;;;;;;;14.48;6.35;;;6.30;99.90;;;;;;4924517;29;20031;-85
2023/01/04 00:17:12;;;;;;;20.63;7.47;;;6.30;99.90;;;;;;4929179;29;20038;-84
2023/01/04 00:19:38;;;;;;;19.00;6.70;;;6.30;99.90;;;;;;4933315;29;20043;-84
2023/01/04 00:22:03;;;;;;;17.63;7.32;;;6.30;99.90;;;;;;4930185;28;20042;-85
2023/01/04 00:24:29;;;;;;;19.90;7.88;;;6.20;99.90;;;;;;4928698;29;20425;-84
2023/01/04 00:26:54;;;;;;;21.48;9.30;;;6.20;99.90;;;;;;4923893;29;20422;-84
2023/01/04 00:29:20;;;;;;;9.40;5.90;;;6.20;99.90;;;;;;4927435;29;20027;-84
2023/01/04 00:31:46;;;;;;;10.18;6.40;;;6.20;99.90;;;;;;4930002;29;20437;-84
2023/01/04 00:34:14;;;;;;;14.95;6.55;;;6.10;99.90;;;;;;4926980;29;20026;-85
2023/01/04 00:36:40;;;;;;;15.15;7.50;;;6.20;99.90;;;;;;4928293;29;20028;-84
2023/01/04 00:39:06;;;;;;;15.98;6.93;;;6.10;99.90;;;;;;4930619;29;20031;-84
2023/01/04 00:41:41;;;;;;;23.98;7.47;;;6.20;99.90;;;;;;4926981;29;20029;-85
2023/01/04 00:44:07;;;;;;;17.85;7.25;;;6.20;99.90;;;;;;4926792;29;20036;-84
2023/01/04 00:46:34;;;;;;;12.38;5.80;;;6.20;99.90;;;;;;4928031;29;20043;-84
2023/01/04 00:49:00;;;;;;;17.20;7.05;;;6.10;99.90;;;;;;4930903;29;20115;-84
2023/01/04 00:51:27;;;;;;;12.93;6.35;;;6.10;99.90;;;;;;4928919;29;20496;-83
2023/01/04 00:53:53;;;;;;;15.27;7.40;;;6.10;99.90;;;;;;4928165;29;20365;-85
2023/01/04 00:56:18;;;;;;;23.05;6.63;;;6.10;99.90;;;;;;4924811;29;20039;-83
2023/01/04 00:58:44;;;;;;;17.27;6.03;;;6.10;99.90;;;;;;4920745;29;20032;-84
2023/01/04 01:01:10;;;;;;;16.08;6.32;;;6.10;99.90;;;;;;4928725;29;20115;-85
2023/01/04 01:03:35;;;;;;;17.45;6.68;;;6.00;99.90;;;;;;4926328;28;20510;-85
2023/01/04 01:06:03;;;;;;;13.77;5.72;;;6.20;99.90;;;;;;4923380;29;20381;-83
2023/01/04 01:08:29;;;;;;;14.05;6.40;;;6.20;99.90;;;;;;4925961;29;20042;-84
2023/01/04 01:11:01;;;;;;;12.57;6.03;;;6.30;99.90;;;;;;4924205;29;20032;-82
2023/01/04 01:13:26;;;;;;;12.80;6.07;;;6.40;99.90;;;;;;4919539;29;20039;-83
2023/01/04 01:15:55;;;;;;;15.13;5.97;;;6.40;99.90;;;;;;4928116;28;20036;-82
2023/01/04 01:18:21;;;;;;;14.93;5.72;;;6.40;99.90;;;;;;4927730;29;20027;-84
2023/01/04 01:20:46;;;;;;;17.17;6.93;;;6.50;99.90;;;;;;4925301;29;20047;-86
2023/01/04 01:23:15;;;;;;;16.25;6.63;;;6.50;99.90;;;;;;4926528;29;20534;-84
2023/01/04 01:25:41;;;;;;;17.48;7.25;;;6.50;99.90;;;;;;4928624;29;20042;-85
2023/01/04 01:28:08;;;;;;;13.98;6.95;;;6.50;99.90;;;;;;4929397;29;20032;-82
2023/01/04 01:30:37;;;;;;;14.77;6.85;;;6.50;99.90;;;;;;4928166;29;20539;-88
2023/01/04 01:33:03;;;;;;;16.55;6.22;;;6.50;99.90;;;;;;4923652;29;20054;-85
2023/01/04 01:35:28;;;;;;;17.15;6.45;;;6.50;99.90;;;;;;4923660;29;20448;-88
2023/01/04 01:37:54;;;;;;;17.63;7.03;;;6.40;99.90;;;;;;4927694;29;20124;-87
2023/01/04 01:40:19;;;;;;;18.20;7.45;;;6.40;99.90;;;;;;4921541;29;20035;-87
2023/01/04 01:42:45;;;;;;;18.08;6.55;;;6.40;99.90;;;;;;4928369;29;20051;-83
2023/01/04 01:45:33;;;;;;;29.65;6.68;;;6.50;99.90;;;;;;4927875;29;20114;-85
2023/01/04 01:48:10;;;;;;;18.42;6.68;;;6.50;99.90;;;;;;4920407;29;20052;-87
2023/01/04 01:50:43;;;;;;;13.80;6.60;;;6.40;99.90;;;;;;4925481;29;20039;-86
2023/01/04 01:53:10;;;;;;;16.27;6.10;;;6.40;99.90;;;;;;4923938;29;20040;-84
2023/01/04 01:55:38;;;;;;;16.30;6.18;;;6.40;99.90;;;;;;4926590;29;20758;-84
2023/01/04 01:58:06;;;;;;;17.00;6.28;;;6.40;99.90;;;;;;4928051;29;20036;-84
2023/01/04 02:00:31;;;;;;;15.25;6.25;;;6.40;99.90;;;;;;4923486;29;20119;-85
2023/01/04 02:03:19;;;;;;;17.55;6.70;;;6.50;99.90;;;;;;4923435;29;20450;-82
2023/01/04 02:05:50;;;;;;;13.68;5.10;;;6.50;99.90;;;;;;4925611;29;20408;-87
2023/01/04 02:08:17;;;;;;;16.10;5.35;;;6.50;99.90;;;;;;4926827;29;20159;-83
2023/01/04 02:10:43;;;;;;;8.77;4.55;;;6.60;99.90;;;;;;4928677;29;20043;-84
2023/01/04 02:13:13;;;;;;;14.63;5.57;;;6.50;99.90;;;;;;4928453;29;20038;-87
2023/01/04 02:16:07;;;;;;;10.98;6.13;;;6.60;99.90;;;;;;4923187;28;20024;-82
2023/01/04 02:18:45;;;;;;;10.77;5.10;;;6.60;99.90;;;;;;4924915;29;20027;-85
2023/01/04 02:21:22;;;;;;;8.63;4.97;;;6.60;99.90;;;;;;4917987;29;20087;-84
2023/01/04 02:23:50;;;;;;;13.25;4.95;;;6.60;99.90;;;;;;4925809;29;20572;-88
2023/01/04 02:26:54;;;;;;;15.85;5.40;;;6.60;99.90;;;;;;4921880;29;20024;-85
2023/01/04 02:29:25;;;;;;;13.15;4.78;;;6.60;99.90;;;;;;4926733;29;20028;-88
2023/01/04 02:31:56;;;;;;;17.13;5.10;;;6.60;99.90;;;;;;4927461;29;20070;-86
2023/01/04 02:34:33;;;;;;;7.75;4.25;;;6.60;99.90;;;;;;4922366;29;20029;-83
2023/01/04 02:37:05;;;;;;;11.70;5.22;;;6.60;99.90;;;;;;4926076;29;20042;-87
2023/01/04 02:39:40;;;;;;;10.82;4.47;;;6.70;99.90;;;;;;4922174;29;20062;-86
2023/01/04 02:44:51;;;;;;;10.60;4.75;;;6.70;99.90;;;;;;4924717;29;20150;-85
2023/01/04 02:45:16;;;;;;;14.15;4.60;;;6.70;99.90;;;;;;4928001;29;20388;-86
2023/01/04 02:50:51;;;;;;;13.45;5.35;;;6.70;99.90;;;;;;4922388;29;20582;-85
2023/01/04 02:53:21;;;;;;;16.15;4.32;;;6.80;99.90;;;;;;4922140;29;20046;-86
2023/01/04 02:56:06;;;;;;;6.90;3.72;;;6.70;99.90;;;;;;4925677;29;20031;-87
2023/01/04 02:58:53;;;;;;;10.30;4.20;;;6.70;99.90;;;;;;4927136;29;20349;-86
2023/01/04 03:07:49;;;;;;;16.15;4.40;;;6.70;99.90;;;;;;4929142;29;20319;-88
2023/01/04 03:10:23;;;;;;;8.65;3.70;;;6.70;99.90;;;;;;4919461;29;20032;-88
2023/01/04 03:13:07;;;;;;;9.20;4.40;;;6.70;99.90;;;;;;4934801;29;20484;-86
2023/01/04 03:15:37;;;;;;;8.32;3.80;;;6.70;99.90;;;;;;4915126;29;20035;-87
2023/01/04 03:18:18;;;;;;;13.13;4.05;;;6.70;99.90;;;;;;4920797;29;20473;-87
2023/01/04 03:20:45;;;;;;;10.18;3.17;;;6.70;99.90;;;;;;4926088;29;20083;-84
2023/01/04 03:43:08;;;;;;;8.48;2.58;;;6.80;99.90;;;;;;4926587;29;20070;-85
2023/01/04 03:49:44;;;;;;;5.07;2.67;;;6.80;99.90;;;;;;4925857;29;19929;-84
2023/01/04 03:52:12;;;;;;;7.53;2.80;;;6.90;99.90;;;;;;4927792;29;20046;-84
2023/01/04 03:54:42;;;;;;;13.85;4.28;;;6.90;99.90;;;;;;4926170;29;20040;-89
2023/01/04 03:57:08;;;;;;;8.13;2.75;;;7.00;99.90;;;;;;4922026;29;20063;-84
2023/01/04 03:59:46;;;;;;;10.85;2.60;;;7.00;99.90;;;;;;4920857;29;20039;-84
2023/01/04 04:02:13;;;;;;;12.48;4.97;;;7.00;99.90;;;;;;4930777;29;20267;-85
2023/01/04 04:10:12;;;;;;;8.05;2.45;;;7.00;99.90;;;;;;4928587;29;20039;-84
2023/01/04 04:12:37;;;;;;;13.73;2.25;;;7.00;99.90;;;;;;4930245;29;20044;-83
2023/01/04 04:15:03;;;;;;;12.48;2.38;;;7.00;99.90;;;;;;4921333;29;20043;-86
2023/01/04 04:17:29;;;;;;;7.72;2.40;;;7.00;99.90;;;;;;4929222;29;20154;-85
2023/01/04 04:19:55;;;;;;;11.45;2.42;;;7.00;99.90;;;;;;4928097;29;20433;-83
2023/01/04 04:22:20;;;;;;;13.23;2.83;;;7.00;99.90;;;;;;4926577;29;20481;-85
2023/01/04 04:24:46;;;;;;;10.38;2.50;;;7.00;99.90;;;;;;4927069;29;20044;-83
2023/01/04 04:27:11;;;;;;;6.65;2.53;;;7.00;99.90;;;;;;4923291;29;21209;-83
2023/01/04 04:29:37;;;;;;;5.25;2.13;;;7.00;99.90;;;;;;4931536;29;20507;-83
2023/01/04 04:32:03;;;;;;;7.85;2.30;;;7.00;99.90;;;;;;4921325;29;20071;-83
2023/01/04 04:34:28;;;;;;;7.18;2.40;;;7.00;99.90;;;;;;4928792;29;20028;-82
2023/01/04 04:36:54;;;;;;;9.80;2.22;;;7.00;99.90;;;;;;4926489;29;20118;-85
2023/01/04 04:39:19;;;;;;;6.90;2.13;;;6.90;99.90;;;;;;4928418;29;20043;-82
2023/01/04 04:41:45;;;;;;;10.57;2.53;;;6.90;99.90;;;;;;4923063;29;20032;-83
2023/01/04 04:44:16;;;;;;;10.00;2.28;;;6.90;99.90;;;;;;4923633;29;20043;-83
2023/01/04 04:46:44;;;;;;;14.15;2.92;;;6.90;99.90;;;;;;4928851;28;20056;-82
2023/01/04 04:49:10;;;;;;;7.85;2.20;;;7.00;99.90;;;;;;4926521;29;20094;-85
2023/01/04 04:51:36;;;;;;;5.80;1.92;;;7.00;99.90;;;;;;4929735;29;20105;-84
2023/01/04 04:54:03;;;;;;;4.50;1.88;;;7.00;99.90;;;;;;4929738;29;20361;-85
2023/01/04 04:56:33;;;;;;;5.85;2.08;;;6.90;99.90;;;;;;4927962;29;20502;-86
2023/01/04 04:58:58;;;;;;;12.00;2.03;;;7.00;99.90;;;;;;4931903;28;20024;-85
2023/01/04 05:01:24;;;;;;;4.90;2.30;;;7.00;99.90;;;;;;4926064;29;20425;-84
2023/01/04 05:03:52;;;;;;;5.97;1.77;;;7.10;99.90;;;;;;4925970;29;20032;-84
2023/01/04 05:06:21;;;;;;;5.82;2.33;;;7.10;99.90;;;;;;4927537;29;20028;-84
2023/01/04 05:08:48;;;;;;;4.47;1.90;;;7.10;99.90;;;;;;4926355;29;20119;-84
2023/01/04 05:12:58;;;;;;;11.55;2.97;;;7.10;99.90;;;;;;4924638;29;20067;-85
2023/01/04 05:13:59;;;;;;;5.28;2.20;;;7.10;99.90;;;;;;4926358;29;20124;-85
2023/01/04 05:16:24;;;;;;;8.00;2.20;;;7.20;99.90;;;;;;4924851;29;20130;-85
2023/01/04 05:18:51;;;;;;;6.28;1.58;;;7.20;99.90;;;;;;4924386;29;20031;-86
2023/01/04 05:21:17;;;;;;;7.82;2.10;;;7.20;99.90;;;;;;4929531;29;20039;-84
2023/01/04 05:23:42;;;;;;;6.05;2.08;;;7.20;99.90;;;;;;4925796;29;20035;-84
2023/01/04 05:26:08;;;;;;;6.78;2.20;;;7.30;99.90;;;;;;4922420;29;20047;-83
2023/01/04 05:28:33;;;;;;;8.85;2.10;;;7.30;99.90;;;;;;4926554;29;20032;-84
2023/01/04 05:30:59;;;;;;;8.18;1.70;;;7.30;99.90;;;;;;4928962;29;20552;-85
2023/01/04 05:33:27;;;;;;;15.30;2.08;;;7.40;99.90;;;;;;4926356;29;20028;-83
2023/01/04 05:35:59;;;;;;;17.52;3.20;;;7.40;99.90;;;;;;4928205;29;20111;-86
2023/01/04 05:38:25;;;;;;;12.98;2.67;;;7.40;99.90;;;;;;4928961;29;20039;-87
2023/01/04 05:40:51;;;;;;;8.20;2.17;;;7.40;99.90;;;;;;4924034;29;20118;-86
2023/01/04 05:43:18;;;;;;;7.03;1.80;;;7.40;99.90;;;;;;4921377;29;20130;-86
2023/01/04 05:45:48;;;;;;;10.48;1.83;;;7.40;99.90;;;;;;4927702;29;20028;-84
2023/01/04 05:48:13;;;;;;;6.03;1.95;;;7.30;99.90;;;;;;4923604;29;20086;-87
2023/01/04 05:50:39;;;;;;;8.57;2.47;;;7.30;99.90;;;;;;4923729;29;20130;-84
2023/01/04 05:53:05;;;;;;;12.00;2.70;;;7.30;99.90;;;;;;4921863;29;20548;-91
2023/01/04 05:55:31;;;;;;;12.55;3.05;;;7.30;99.90;;;;;;4927422;29;20122;-88
2023/01/04 05:57:57;;;;;;;7.15;1.98;;;7.30;99.90;;;;;;4926588;29;22699;-88
2023/01/04 06:00:23;;;;;;;5.43;2.47;;;7.20;99.90;;;;;;4921788;29;20024;-86
2023/01/04 06:02:51;;;;;;;8.10;2.33;;;7.30;99.90;;;;;;4928846;29;20028;-87
2023/01/04 06:05:17;;;;;;;7.82;2.83;;;7.20;99.90;;;;;;4924614;29;20032;-88
2023/01/04 06:07:42;;;;;;;4.95;2.03;;;7.20;99.90;;;;;;4924298;29;20036;-87
2023/01/04 06:10:10;;;;;;;12.30;2.40;;;7.20;99.90;;;;;;4920997;29;20039;-83
2023/01/04 06:12:37;;;;;;;8.98;2.40;;;7.20;99.90;;;;;;4925783;29;20043;-86
2023/01/04 06:15:03;;;;;;;8.52;1.88;;;7.30;99.90;;;;;;4921868;29;20489;-85
2023/01/04 06:17:29;;;;;;;5.72;2.35;;;7.20;99.90;;;;;;4924732;29;20054;-86
2023/01/04 06:19:54;;;;;;;11.10;3.25;;;7.30;99.90;;;;;;4925244;29;20106;-87
2023/01/04 06:22:20;;;;;;;6.25;2.33;;;7.30;99.90;;;;;;4925360;29;20036;-86
2023/01/04 06:24:46;;;;;;;4.70;2.55;;;7.30;99.90;;;;;;4921479;29;20032;-89
2023/01/04 06:27:11;;;;;;;6.22;2.40;;;7.30;99.90;;;;;;4924585;29;20039;-86
2023/01/04 06:29:37;;;;;;;7.55;2.30;;;7.30;99.90;;;;;;4921181;29;20112;-88
2023/01/04 06:32:02;;;;;;;7.93;2.83;;;7.30;99.90;;;;;;4921636;29;20048;-86
2023/01/04 06:34:28;;;;;;;7.63;2.45;;;7.30;99.90;;;;;;4921250;29;20054;-87
2023/01/04 06:36:53;;;;;;;4.10;1.75;;;7.30;99.90;;;;;;4928148;29;20058;-89
2023/01/04 06:39:19;;;;;;;8.15;2.90;;;7.30;99.90;;;;;;4926027;29;20027;-88
2023/01/04 06:41:45;;;;;;;3.10;2.03;;;7.30;99.90;;;;;;4924284;29;20102;-87
2023/01/04 06:44:10;;;;;;;3.75;2.35;;;7.30;99.90;;;;;;4920786;29;20031;-89
2023/01/04 06:46:36;;;;;;;6.20;2.05;;;7.30;99.90;;;;;;4923439;29;20099;-87
2023/01/04 06:49:01;;;;;;;9.13;3.10;;;7.30;99.90;;;;;;4921200;29;20052;-88
2023/01/04 06:51:27;;;;;;;6.50;2.33;;;7.40;99.90;;;;;;4921490;29;20058;-88
2023/01/04 06:53:53;;;;;;;10.00;2.53;;;7.40;99.90;;;;;;4916790;28;20536;-86
2023/01/04 06:56:18;;;;;;;6.88;2.05;;;7.40;99.90;;;;;;4925141;29;20442;-86
2023/01/04 06:58:44;;;;;;;6.72;2.50;;;7.40;99.90;;;;;;4921043;29;20336;-87
2023/01/04 07:01:09;;;;;;;8.20;3.00;;;7.40;99.90;;;;;;4921421;29;20750;-86
2023/01/04 07:03:35;;;;;;;4.10;2.13;;;7.50;99.90;;;;;;4929165;29;20036;-89
2023/01/04 07:06:05;;;;;;;9.25;4.65;;;7.40;99.90;;;;;;4925587;29;20039;-88
2023/01/04 07:08:31;;;;;;;9.65;2.63;;;7.50;99.90;;;;;;4924674;29;20071;-87
2023/01/04 07:10:56;;;;;;;4.78;2.22;;;7.40;99.90;;;;;;4923651;29;20050;-86
2023/01/04 07:13:25;;;;;;;5.75;2.35;;;7.50;99.90;;;;;;4921555;29;20440;-87
2023/01/04 07:15:51;;;;;;;2.78;2.15;;;7.40;99.90;;;;;;4922465;29;20484;-83
2023/01/04 07:18:16;;;;;;;3.47;1.85;;;7.40;99.90;;;;;;4923309;29;20031;-88
2023/01/04 07:20:43;;;;;;;4.50;2.08;;;7.40;99.90;;;;;;4929140;29;20536;-85
2023/01/04 07:23:08;;;;;;;3.97;1.92;;;7.40;99.90;;;;;;4930206;29;20051;-89
2023/01/04 07:25:34;;;;;;;6.15;2.05;;;7.40;99.90;;;;;;4922703;29;20393;-86
2023/01/04 07:28:00;;;;;;;7.38;1.90;;;7.40;99.90;;;;;;4917213;29;20042;-85
2023/01/04 07:30:25;;;;;;;5.95;2.35;;;7.50;99.90;;;;;;4929265;29;20031;-87
2023/01/04 07:32:54;;;;;;;6.28;2.50;;;7.50;99.90;;;;;;4927830;28;20024;-88
2023/01/04 07:35:20;;;;;;;10.27;2.13;;;7.50;99.90;;;;;;4925616;29;20032;-88
2023/01/04 07:37:46;;;;;;;6.63;2.40;;;7.50;99.90;;;;;;4926182;29;20040;-86
2023/01/04 07:40:15;;;;;;;4.93;2.20;;;7.40;99.90;;;;;;4922945;29;20408;-84
2023/01/04 07:42:40;;;;;;;4.28;2.20;;;7.50;99.90;;;;;;4918377;29;20123;-86
2023/01/04 07:45:07;;;;;;;2.97;2.08;;;7.50;99.90;;;;;;4915897;29;20118;-85
2023/01/04 07:47:33;;;;;;;3.60;2.00;;;7.50;99.90;;;;;;4943732;28;20047;-84
2023/01/04 07:50:02;;;;;;;7.90;2.10;;;7.50;99.90;;;;;;4916460;29;20035;-85
2023/01/04 07:52:27;;;;;;;4.72;2.30;;;7.50;99.90;;;;;;4918774;29;20456;-84
2023/01/04 07:54:53;;;;;;;2.03;1.90;;;7.50;99.90;;;;;;4921283;29;20043;-85
2023/01/04 07:57:18;;;;;;;3.55;2.42;;;7.50;99.90;;;;;;4921543;29;20027;-84
2023/01/04 07:59:44;;;;;;;2.78;2.40;;;7.50;99.90;;;;;;4925209;29;20188;-84
2023/01/04 08:02:10;;;;;;;7.22;4.35;;;7.50;99.90;;;;;;4926194;29;20028;-84
2023/01/04 08:04:39;;;;;;;2.35;1.92;;;7.50;99.90;;;;;;4922176;29;20032;-86
2023/01/04 08:07:05;;;;;;;3.47;3.17;;;7.50;99.90;;;;;;4924458;29;20060;-87
2023/01/04 08:09:30;;;;;;;4.70;2.70;;;7.50;99.90;;;;;;4925613;29;20028;-84
2023/01/04 08:11:56;;;;;;;2.45;1.90;;;7.50;99.90;;;;;;4923977;29;20459;-85
2023/01/04 08:14:22;;;;;;;8.45;5.40;;;7.50;99.90;;;;;;4921912;29;20512;-85
2023/01/04 08:16:47;;;;;;;6.38;3.95;;;7.60;99.90;;;;;;4924669;29;20059;-84
2023/01/04 08:19:19;;;;;;;4.18;2.42;;;7.60;99.90;;;;;;4927575;29;20035;-89
2023/01/04 08:21:45;;;;;;;2.88;2.33;;;7.60;99.90;;;;;;4922015;29;20055;-84
2023/01/04 08:24:12;;;;;;;4.18;3.25;;;7.70;99.90;;;;;;4923182;29;20059;-86
2023/01/04 08:26:38;;;;;;;2.92;2.42;;;7.70;99.90;;;;;;4927718;29;20500;-85
2023/01/04 08:29:04;;;;;;;3.58;2.85;;;7.70;99.90;;;;;;4928256;29;20041;-84
2023/01/04 08:31:31;;;;;;;4.97;2.42;;;7.80;99.90;;;;;;4925486;28;20416;-85
2023/01/04 08:33:59;;;;;;;3.22;2.38;;;7.70;99.90;;;;;;4928185;29;20064;-86
2023/01/04 08:36:30;;;;;;;4.43;2.53;;;7.70;99.90;;;;;;4929673;29;20031;-84
2023/01/04 08:39:00;;;;;;;4.88;2.47;;;7.80;99.90;;;;;;4928916;29;20035;-84
2023/01/04 08:41:27;;;;;;;6.85;2.67;;;7.80;99.90;;;;;;4921609;29;20122;-86
2023/01/04 08:43:52;;;;;;;3.38;2.35;;;7.90;99.90;;;;;;4928432;29;20436;-85
2023/01/04 08:46:18;;;;;;;5.88;2.50;;;7.90;99.90;;;;;;4925892;29;20340;-84
2023/01/04 08:48:43;;;;;;;3.28;2.67;;;7.90;99.90;;;;;;4929063;29;20052;-83
2023/01/04 08:51:14;;;;;;;6.90;2.45;;;7.90;99.90;;;;;;4924173;29;20050;-86
2023/01/04 08:53:40;;;;;;;3.10;2.40;;;7.90;99.90;;;;;;4919981;29;20051;-84
2023/01/04 08:56:06;;;;;;;3.20;2.67;;;8.00;99.90;;;;;;4930663;29;20044;-85
2023/01/04 08:58:34;;;;;;;7.00;3.13;;;8.00;99.90;;;;;;4922540;29;20118;-86
2023/01/04 09:01:10;;;;;;;3.15;2.50;;;8.00;99.90;;;;;;4925340;29;20050;-86
2023/01/04 09:03:36;;;;;;;2.78;2.40;;;8.00;99.90;;;;;;4924105;29;20028;-88
2023/01/04 09:06:10;;;;;;;2.80;2.35;;;8.10;99.90;;;;;;4920140;29;20028;-84
2023/01/04 09:08:37;;;;;;;4.38;2.22;;;8.10;99.90;;;;;;4928719;29;20032;-84
2023/01/04 09:11:14;;;;;;;5.68;2.63;;;8.10;99.90;;;;;;4927334;28;20084;-85
2023/01/04 09:13:40;;;;;;;5.10;2.15;;;8.10;99.90;;;;;;4921455;29;20028;-85
2023/01/04 09:16:08;;;;;;;3.25;2.42;;;8.10;99.90;;;;;;4925423;29;20459;-85
2023/01/04 09:18:34;;;;;;;7.90;2.25;;;8.20;99.90;;;;;;4930176;29;20035;-89
2023/01/04 09:21:05;;;;;;;2.33;1.95;;;8.20;99.90;;;;;;4923072;29;20080;-86
2023/01/04 09:23:32;;;;;;;3.58;2.40;;;8.20;99.90;;;;;;4917692;29;20032;-85
2023/01/04 09:26:03;;;;;;;4.63;2.05;;;8.30;99.90;;;;;;4920887;29;20036;-85
2023/01/04 09:28:28;;;;;;;4.40;2.45;;;8.20;99.90;;;;;;4927182;29;20032;-86
2023/01/04 09:30:54;;;;;;;3.95;2.35;;;8.20;99.90;;;;;;4920788;29;20564;-84
2023/01/04 09:33:19;;;;;;;4.10;2.60;;;8.30;99.90;;;;;;4926140;29;20043;-87
2023/01/04 09:35:45;;;;;;;3.47;2.13;;;8.30;99.90;;;;;;4930684;29;20065;-85
2023/01/04 09:38:11;;;;;;;5.10;2.25;;;8.30;99.90;;;;;;4930066;29;20028;-84
2023/01/04 09:41:00;;;;;;;6.22;2.20;;;8.30;99.90;;;;;;4926403;29;20024;-88
2023/01/04 09:43:32;;;;;;;2.90;2.05;;;8.30;99.90;;;;;;4928077;29;20035;-84
2023/01/04 09:46:04;;;;;;;5.53;2.38;;;8.30;99.90;;;;;;4932321;29;20123;-85
2023/01/04 09:48:32;;;;;;;10.52;2.33;;;8.30;99.90;;;;;;4930205;29;20079;-88
2023/01/04 09:51:11;;;;;;;5.25;2.70;;;8.30;99.90;;;;;;4922313;29;20019;-87
2023/01/04 09:53:54;;;;;;;3.83;2.67;;;8.40;99.90;;;;;;4929631;28;20043;-88
2023/01/04 09:56:25;;;;;;;8.32;2.58;;;8.40;99.90;;;;;;4927602;29;20435;-84
2023/01/04 09:58:52;;;;;;;6.20;2.67;;;8.40;99.90;;;;;;4929363;29;20031;-85
2023/01/04 10:01:29;;;;;;;4.15;2.60;;;8.40;99.90;;;;;;4929051;29;20028;-84
2023/01/04 10:04:06;;;;;;;4.32;2.45;;;8.40;99.90;;;;;;4927961;29;20020;-85
2023/01/04 10:06:33;;;;;;;4.05;2.72;;;8.50;99.90;;;;;;4928716;29;20047;-85
2023/01/04 10:09:03;;;;;;;3.15;2.53;;;8.50;99.90;;;;;;4923388;29;20524;-85
2023/01/04 10:11:46;;;;;;;5.97;3.20;;;8.50;99.90;;;;;;4925760;29;20051;-86
2023/01/04 10:14:29;;;;;;;2.47;2.28;;;8.50;99.90;;;;;;4925563;29;20119;-85
2023/01/04 10:17:34;;;;;;;3.38;2.20;;;8.50;99.90;;;;;;4927035;29;20036;-86
2023/01/04 10:20:45;;;;;;;7.53;2.40;;;8.50;99.90;;;;;;4909767;29;20020;-89
2023/01/04 10:23:11;;;;;;;3.65;2.22;;;8.60;99.90;;;;;;4868493;29;20027;-87
2023/01/04 10:26:25;;;;;;;4.88;2.30;;;8.60;99.90;;;;;;4923855;29;20182;-86
2023/01/04 10:29:08;;;;;;;5.35;2.30;;;8.70;99.90;;;;;;4905230;29;20044;-86
2023/01/04 10:31:44;;;;;;;7.47;2.90;;;8.70;99.90;;;;;;4926090;29;20128;-90
2023/01/04 10:34:28;;;;;;;;;;;8.70;99.90;;;;;;4924863;29;20032;-88
2023/01/04 10:37:02;;;;;;;5.65;2.45;;;8.70;99.90;;;;;;4946158;28;19918;-85
2023/01/04 10:39:31;;;;;;;4.38;2.67;;;8.70;99.90;;;;;;4924556;29;20493;-87
2023/01/04 10:42:08;;;;;;;6.95;2.42;;;8.70;99.90;;;;;;4927434;29;20030;-88
2023/01/04 10:45:03;;;;;;;5.72;3.10;;;8.70;99.90;;;;;;4924497;29;20036;-87
2023/01/04 10:47:53;;;;;;;5.45;2.78;;;8.70;99.90;;;;;;4920404;29;20528;-88
2023/01/04 10:50:24;;;;;;;4.95;3.17;;;8.70;99.90;;;;;;4932634;29;20040;-88
2023/01/04 10:53:21;;;;;;;4.78;2.55;;;8.70;99.90;;;;;;4928869;29;20404;-91
2023/01/04 10:56:08;;;;;;;3.60;2.30;;;8.70;99.90;;;;;;4911114;29;20068;-85
2023/01/04 10:58:40;;;;;;;5.30;2.30;;;8.70;99.90;;;;;;4931695;29;20492;-88
2023/01/04 11:01:13;;;;;;;4.43;2.15;;;8.70;99.90;;;;;;4924527;29;20572;-87
2023/01/04 11:03:50;;;;;;;3.25;2.15;;;8.80;99.90;;;;;;4924605;29;20043;-86
2023/01/04 11:06:22;;;;;;;3.65;2.28;;;8.80;99.90;;;;;;4925353;29;20253;-87
2023/01/04 11:08:56;;;;;;;7.65;2.15;;;8.90;99.90;;;;;;4925548;29;20652;-84
2023/01/04 11:11:31;;;;;;;2.40;2.15;;;8.90;99.90;;;;;;4927537;29;20047;-88
2023/01/04 11:14:00;;;;;;;4.33;2.03;;;8.90;99.90;;;;;;4928421;29;20071;-88
2023/01/04 11:16:28;;;;;;;4.15;2.58;;;8.90;99.90;;;;;;4929250;29;20032;-85
2023/01/04 11:18:54;;;;;;;4.43;2.67;;;8.90;99.90;;;;;;4942888;28;20036;-86
2023/01/04 11:21:26;;;;;;;5.95;2.22;;;8.90;99.90;;;;;;4916932;29;20039;-86
2023/01/04 11:23:53;;;;;;;3.70;3.10;;;9.00;99.90;;;;;;4921277;29;20070;-87
2023/01/04 11:26:23;;;;;;;4.25;2.72;;;9.00;99.90;;;;;;4923139;29;20035;-87
2023/01/04 11:28:56;;;;;;;9.15;2.50;;;9.00;99.90;;;;;;4928976;29;20165;-89
2023/01/04 11:31:31;;;;;;;3.63;2.50;;;9.00;99.90;;;;;;4919842;29;20044;-88
2023/01/04 11:34:02;;;;;;;4.45;3.08;;;9.10;99.90;;;;;;4928422;29;20023;-86
2023/01/04 11:36:30;;;;;;;7.88;2.67;;;9.00;99.90;;;;;;4930705;29;20043;-84
2023/01/04 11:38:57;;;;;;;5.40;2.80;;;9.10;99.90;;;;;;4922831;29;20020;-88
2023/01/04 11:41:22;;;;;;;3.45;2.60;;;9.00;99.90;;;;;;4930784;29;20035;-89
2023/01/04 11:44:03;;;;;;;3.08;2.22;;;9.00;99.90;;;;;;4924879;29;20547;-87
2023/01/04 11:46:30;;;;;;;3.10;2.40;;;9.00;99.90;;;;;;4924881;29;20036;-85
2023/01/04 11:48:55;;;;;;;9.10;3.75;;;9.00;99.90;;;;;;4926417;29;20492;-82
2023/01/04 11:51:35;;;;;;;4.85;2.10;;;9.00;99.90;;;;;;4923758;29;20036;-86
2023/01/04 11:54:13;;;;;;;3.65;2.60;;;9.00;99.90;;;;;;4920413;29;20032;-86
2023/01/04 11:56:56;;;;;;;4.85;3.10;;;8.90;99.90;;;;;;4923035;28;20025;-85
2023/01/04 11:59:22;;;;;;;9.73;3.53;;;8.90;99.90;;;;;;4918953;29;20059;-85
2023/01/04 12:01:51;;;;;;;5.28;3.45;;;8.80;99.90;;;;;;4927196;29;20027;-84
2023/01/04 12:04:26;;;;;;;8.05;3.00;;;8.70;99.90;;;;;;4916546;29;20028;-87
2023/01/04 12:07:10;;;;;;;6.32;3.35;;;8.70;99.90;;;;;;4929712;29;20129;-85
2023/01/04 12:09:35;;;;;;;3.17;2.70;;;8.70;99.90;;;;;;4926631;29;20139;-86
2023/01/04 12:12:01;;;;;;;3.92;2.67;;;8.70;99.90;;;;;;4922616;29;20132;-87
2023/01/04 12:14:31;;;;;;;5.45;2.47;;;8.90;99.90;;;;;;4928524;29;20048;-83
2023/01/04 12:17:23;;;;;;;6.28;2.70;;;8.90;99.90;;;;;;4928874;29;20457;-81
2023/01/04 12:19:52;;;;;;;4.95;2.30;;;8.90;99.90;;;;;;4932108;29;20432;-84
2023/01/04 12:22:35;;;;;;;2.40;1.95;;;9.00;99.90;;;;;;4926623;29;20059;-84
2023/01/04 12:25:06;;;;;;;5.65;2.10;;;9.00;99.90;;;;;;4918125;29;20115;-85
2023/01/04 12:27:33;;;;;;;5.22;2.33;;;9.10;99.90;;;;;;4933653;29;20106;-87
2023/01/04 12:30:00;;;;;;;3.85;2.35;;;9.10;99.90;;;;;;4923521;29;20592;-86
2023/01/04 12:32:26;;;;;;;2.55;2.33;;;9.10;99.90;;;;;;4926881;29;20031;-85
2023/01/04 12:34:52;;;;;;;3.72;1.63;;;9.10;99.90;;;;;;4930891;29;20030;-87
2023/01/04 12:37:36;;;;;;;3.17;1.90;;;9.10;99.90;;;;;;4927174;29;20499;-86
2023/01/04 12:40:23;;;;;;;1.55;1.45;;;9.10;99.90;;;;;;4931448;29;20508;-86
2023/01/04 12:43:13;;;;;;;1.52;1.42;;;9.10;99.90;;;;;;4930712;29;20032;-84
2023/01/04 12:45:39;;;;;;;3.10;2.10;;;9.20;99.90;;;;;;4926147;29;20059;-85
2023/01/04 12:51:25;;;;;;;1.57;1.47;;;9.20;99.90;;;;;;4928764;29;20079;-86
2023/01/04 12:53:57;;;;;;;4.15;1.20;;;9.30;99.90;;;;;;4930129;29;20114;-88
2023/01/04 12:56:25;;;;;;;1.40;1.30;;;9.30;99.90;;;;;;4927347;29;20024;-85
2023/01/04 12:59:13;;;;;;;2.53;1.02;;;9.30;99.90;;;;;;4923548;29;20055;-86
2023/01/04 13:01:39;;;;;;;1.60;1.20;;;9.40;99.90;;;;;;4922552;29;20103;-82
2023/01/04 13:04:38;;;;;;;3.90;1.25;;;9.30;99.90;;;;;;4928580;29;20437;-86
2023/01/04 13:07:13;;;;;;;2.13;1.23;;;9.30;99.90;;;;;;4919897;29;20020;-85
2023/01/04 13:09:45;;;;;;;2.22;1.38;;;9.30;99.90;;;;;;4920437;29;20394;-87
2023/01/04 13:12:35;;;;;;;2.13;1.30;;;9.40;99.90;;;;;;4923754;29;20044;-86
2023/01/04 13:15:07;;;;;;;1.20;1.05;;;9.40;99.90;;;;;;4922827;29;20115;-84
2023/01/04 13:17:38;;;;;;;1.52;1.13;;;9.40;99.90;;;;;;4923699;29;20032;-88
2023/01/04 13:20:35;;;;;;;0.98;0.90;;;9.40;99.90;;;;;;4924099;29;20496;-85
2023/01/04 13:23:01;;;;;;;1.05;1.05;;;9.50;99.90;;;;;;4923189;29;20118;-88
2023/01/04 13:25:27;;;;;;;1.35;1.20;;;9.50;99.90;;;;;;4923564;29;20115;-84
2023/01/04 13:28:04;;;;;;;2.35;1.02;;;9.50;99.90;;;;;;4929765;29;20031;-85
2023/01/04 13:30:37;;;;;;;1.02;0.93;;;9.50;99.90;;;;;;4920631;29;20348;-86
2023/01/04 13:33:09;;;;;;;0.98;0.95;;;9.50;99.90;;;;;;4920730;29;20035;-84
2023/01/04 13:35:34;;;;;;;1.35;1.00;;;9.50;99.90;;;;;;4928752;29;20035;-83
2023/01/04 13:38:00;;;;;;;1.23;0.98;;;9.50;99.90;;;;;;4921138;29;20531;-87
2023/01/04 13:40:29;;;;;;;4.82;1.13;;;9.50;99.90;;;;;;4925236;29;20032;-87
2023/01/04 13:43:14;;;;;;;1.10;0.90;;;9.40;99.90;;;;;;4929176;29;20060;-85
2023/01/04 13:46:18;;;;;;;2.03;1.35;;;9.40;99.90;;;;;;4920776;29;20114;-86
2023/01/04 13:48:47;;;;;;;2.00;1.20;;;9.50;99.90;;;;;;4923382;29;20043;-87
2023/01/04 13:51:13;;;;;;;4.43;1.25;;;9.50;99.90;;;;;;4921469;29;20051;-87
2023/01/04 13:53:39;;;;;;;1.10;1.00;;;9.50;99.90;;;;;;4925634;29;20027;-84